Impacts TAF Board INFO
FOR SITUATIONAL AWARENESS. NOT TO BE USED FOR FLIGHT PLANNING PURPOSES.
IDs:

KPIT - Pittsburgh Intl, PA, US

Issued at 1136 UTC 11 Dec 2017
Updated at 1314 UTC 11 Dec 2017
Potential Impact None Slight Moderate High
Time1251Z 11/14Z 11/15Z 11/16Z 11/17Z 11/18Z 11/19Z 11/20Z 11/21Z 11/22Z 11/23Z 12/00Z 12/01Z 12/02Z>>
Type OBS PRVL PRVL PRVL PRVL PRVL PRVL PRVL PRVL PRVL PRVL PRVL PRVL PRVL
VIS 10 >6 >6 >6 >6 >6 >6 >6 >6 >6 >6 >6 >6 >6
CIG 33 35 35 35 35 35 35 80 80 80 80 80 80 80
Cover OVC BKN BKN BKN BKN BKN BKN BKN BKN BKN BKN BKN BKN BKN
FltCat VFR VFR VFR VFR VFR VFR VFR VFR VFR VFR VFR VFR VFR VFR
WX -- -- -- -- -- -- -- -- -- -- -- -- -- --
WDir 260 270 270 270 270 270 270 170 170 170 170 170 170 170
WSpd 6 7 7 7 7 7 7 4 4 4 4 4 4 4
WGst -- -- -- -- -- -- -- -- -- -- -- -- -- --

Raw TAF
KPIT 111136Z 1112/1218 27007KT P6SM SCT025 BKN035
  FM112000 17004KT P6SM BKN080
  FM120800 21006KT 3SM -SN OVC025
  FM121200 26011G27KT 5SM -SHSN OVC015


Raw METAR
KPIT 111251Z 26006KT 10SM OVC033 00/M08 A3002 RMK AO2 SLP187 T00001078
KPIT 111151Z 28007KT 10SM OVC032 00/M07 A3003 RMK AO2 SLP188 T00001067 10006 20000 53016
KPIT 111051Z 27005KT 10SM OVC034 01/M06 A3001 RMK AO2 SLP182 T00061061

METAR Board
Radar Display
Forecast Discussion

FOR SITUATIONAL AWARENESS. NOT TO BE USED FOR FLIGHT PLANNING PURPOSES.